createdAt,value
2023-01-13T00:01:14.935Z,2.45
2023-01-13T00:03:42.410Z,2.05
2023-01-13T00:06:17.093Z,1.80
2023-01-13T00:08:44.473Z,1.77
2023-01-13T00:11:11.794Z,1.80
2023-01-13T00:13:39.569Z,2.30
2023-01-13T00:16:10.467Z,1.90
2023-01-13T00:18:37.725Z,1.73
2023-01-13T00:21:08.314Z,2.10
2023-01-13T00:23:36.045Z,1.88
2023-01-13T00:26:06.482Z,1.98
2023-01-13T00:28:34.334Z,1.65
2023-01-13T00:31:09.260Z,1.73
2023-01-13T00:33:36.971Z,1.90
2023-01-13T00:36:06.277Z,1.55
2023-01-13T00:38:35.248Z,1.52
2023-01-13T00:41:05.902Z,1.95
2023-01-13T00:43:34.352Z,2.10
2023-01-13T00:46:02.218Z,1.85
2023-01-13T00:48:30.062Z,1.90
2023-01-13T00:50:59.460Z,1.65
2023-01-13T00:53:27.308Z,1.80
2023-01-13T00:56:06.264Z,1.80
2023-01-13T00:58:34.993Z,2.13
2023-01-13T01:01:04.234Z,2.05
2023-01-13T01:03:40.293Z,2.05
2023-01-13T01:06:16.866Z,1.98
2023-01-13T01:08:45.738Z,1.90
2023-01-13T01:11:15.878Z,2.40
2023-01-13T01:13:50.287Z,2.33
2023-01-13T01:16:19.633Z,2.10
2023-01-13T01:18:49.552Z,2.00
2023-01-13T01:21:17.866Z,1.80
2023-01-13T01:23:45.533Z,1.92
2023-01-13T01:26:16.411Z,1.70
2023-01-13T01:28:44.062Z,1.60
2023-01-13T01:31:15.269Z,1.70
2023-01-13T01:33:42.817Z,1.60
2023-01-13T01:36:12.411Z,1.73
2023-01-13T01:38:39.632Z,1.67
2023-01-13T01:41:07.661Z,1.90
2023-01-13T01:44:07.505Z,1.50
2023-01-13T01:46:37.437Z,1.70
2023-01-13T01:49:19.708Z,1.83
2023-01-13T01:51:48.916Z,1.70
2023-01-13T01:54:37.564Z,1.38
2023-01-13T01:57:05.538Z,1.75
2023-01-13T01:59:33.896Z,1.60
2023-01-13T02:02:01.218Z,1.33
2023-01-13T02:04:35.614Z,1.60
2023-01-13T02:07:03.613Z,2.00
2023-01-13T02:09:31.392Z,1.35
2023-01-13T02:12:16.831Z,1.23
2023-01-13T02:14:44.623Z,1.60
2023-01-13T02:17:18.574Z,1.52
2023-01-13T02:22:27.742Z,1.23
2023-01-13T02:25:07.467Z,1.70
2023-01-13T02:27:49.593Z,1.40
2023-01-13T02:31:02.808Z,1.52
2023-01-13T02:33:32.565Z,1.40
2023-01-13T02:36:32.013Z,1.38
2023-01-13T02:39:07.802Z,1.38
2023-01-13T02:42:00.058Z,1.50
2023-01-13T02:44:34.516Z,1.30
2023-01-13T02:47:06.989Z,1.30
2023-01-13T02:49:36.936Z,1.63
2023-01-13T02:52:15.454Z,1.40
2023-01-13T02:54:47.277Z,1.52
2023-01-13T02:57:17.977Z,1.58
2023-01-13T02:59:45.475Z,1.63
2023-01-13T03:02:19.067Z,1.63
2023-01-13T03:04:48.051Z,1.35
2023-01-13T03:07:33.111Z,1.70
2023-01-13T03:10:10.729Z,1.40
2023-01-13T03:13:08.511Z,1.80
2023-01-13T03:16:15.002Z,1.77
2023-01-13T03:19:22.085Z,1.60
2023-01-13T03:21:55.716Z,1.40
2023-01-13T03:24:37.266Z,1.48
2023-01-13T03:27:43.515Z,1.70
2023-01-13T03:30:30.041Z,1.65
2023-01-13T03:33:02.563Z,1.30
2023-01-13T03:35:33.222Z,1.63
2023-01-13T03:38:05.841Z,1.60
2023-01-13T03:40:39.111Z,1.75
2023-01-13T03:44:03.086Z,1.60
2023-01-13T03:46:37.458Z,1.80
2023-01-13T03:49:07.922Z,1.30
2023-01-13T03:51:39.558Z,1.50
2023-01-13T03:54:11.677Z,1.80
2023-01-13T03:57:10.974Z,1.77
2023-01-13T03:59:42.958Z,1.52
2023-01-13T04:02:18.179Z,1.50
2023-01-13T04:04:53.974Z,1.60
2023-01-13T04:07:42.233Z,1.15
2023-01-13T04:10:10.766Z,1.70
2023-01-13T04:13:01.027Z,1.40
2023-01-13T04:15:47.403Z,1.50
2023-01-13T04:18:29.130Z,1.38
2023-01-13T04:21:00.345Z,1.80
2023-01-13T04:23:28.375Z,1.50
2023-01-13T04:25:56.043Z,1.48
2023-01-13T04:28:23.844Z,1.42
2023-01-13T04:30:51.302Z,1.55
2023-01-13T04:33:19.629Z,1.40
2023-01-13T04:35:47.833Z,1.35
2023-01-13T04:38:17.622Z,1.48
2023-01-13T04:40:45.839Z,1.52
2023-01-13T04:43:13.223Z,1.55
2023-01-13T04:45:40.305Z,1.83
2023-01-13T04:48:07.908Z,1.70
2023-01-13T04:50:35.599Z,2.03
2023-01-13T04:53:02.730Z,1.77
2023-01-13T04:55:30.400Z,2.20
2023-01-13T04:58:10.528Z,2.13
2023-01-13T05:00:42.314Z,1.80
2023-01-13T05:03:09.510Z,1.90
2023-01-13T05:05:36.549Z,2.00
2023-01-13T05:08:03.818Z,2.03
2023-01-13T05:10:31.130Z,2.20
2023-01-13T05:13:16.605Z,2.30
2023-01-13T05:16:02.714Z,2.70
2023-01-13T05:18:31.550Z,2.08
2023-01-13T05:20:58.595Z,2.75
2023-01-13T05:23:44.110Z,2.28
2023-01-13T05:26:11.216Z,2.33
2023-01-13T05:28:38.302Z,2.10
2023-01-13T05:31:05.521Z,1.63
2023-01-13T05:33:34.905Z,1.83
2023-01-13T05:36:04.135Z,1.60
2023-01-13T05:38:31.320Z,1.95
2023-01-13T05:41:18.891Z,1.92
2023-01-13T05:43:46.102Z,1.80
2023-01-13T05:46:13.205Z,2.15
2023-01-13T05:48:42.658Z,1.50
2023-01-13T05:51:12.122Z,1.60
2023-01-13T05:53:41.165Z,1.77
2023-01-13T05:56:09.902Z,1.60
2023-01-13T05:58:37.317Z,1.40
2023-01-13T06:01:08.220Z,1.55
2023-01-13T06:03:35.380Z,1.58
2023-01-13T06:06:04.381Z,1.45
2023-01-13T06:08:32.041Z,1.80
2023-01-13T06:10:59.300Z,1.73
2023-01-13T06:13:26.599Z,1.58
2023-01-13T06:15:58.404Z,1.55
2023-01-13T06:18:25.871Z,1.63
2023-01-13T06:20:52.881Z,1.27
2023-01-13T06:23:20.044Z,1.55
2023-01-13T06:26:02.601Z,1.55
2023-01-13T06:28:29.759Z,1.77
2023-01-13T06:31:00.377Z,1.70
2023-01-13T06:33:32.299Z,1.73
2023-01-13T06:36:03.660Z,1.77
2023-01-13T06:38:35.464Z,1.40
2023-01-13T06:41:03.070Z,1.38
2023-01-13T06:43:30.218Z,1.30
2023-01-13T06:45:57.349Z,1.35
2023-01-13T06:48:29.307Z,1.35
2023-01-13T06:50:56.478Z,1.33
2023-01-13T06:53:23.677Z,1.30
2023-01-13T06:55:50.885Z,1.88
2023-01-13T06:58:18.020Z,1.50
2023-01-13T07:00:49.891Z,1.45
2023-01-13T07:03:19.637Z,1.17
2023-01-13T07:05:53.385Z,1.58
2023-01-13T07:08:21.168Z,1.48
2023-01-13T07:10:48.323Z,1.52
2023-01-13T07:13:34.061Z,2.10
2023-01-13T07:16:04.620Z,1.83
2023-01-13T07:18:33.558Z,1.92
2023-01-13T07:21:06.285Z,1.80
2023-01-13T07:23:36.530Z,2.38
2023-01-13T07:26:05.097Z,2.25
2023-01-13T07:28:32.787Z,1.65
2023-01-13T07:31:00.739Z,1.70
2023-01-13T07:33:28.050Z,1.58
2023-01-13T07:36:03.116Z,1.88
2023-01-13T07:38:31.360Z,1.88
2023-01-13T07:40:58.567Z,1.80
2023-01-13T07:43:34.698Z,1.92
2023-01-13T07:46:06.543Z,1.73
2023-01-13T07:48:34.897Z,1.52
2023-01-13T07:51:03.647Z,1.77
2023-01-13T07:53:30.885Z,1.40
2023-01-13T07:55:58.915Z,1.63
2023-01-13T07:58:27.160Z,1.50
2023-01-13T08:00:55.185Z,1.73
2023-01-13T08:03:23.474Z,1.55
2023-01-13T08:05:51.047Z,1.70
2023-01-13T08:08:18.419Z,1.90
2023-01-13T08:10:45.584Z,1.80
2023-01-13T08:13:22.976Z,1.75
2023-01-13T08:15:59.087Z,1.48
2023-01-13T08:18:26.199Z,1.70
2023-01-13T08:20:53.371Z,1.40
2023-01-13T08:23:21.782Z,1.70
2023-01-13T08:25:49.494Z,1.67
2023-01-13T08:28:17.691Z,1.17
2023-01-13T08:30:44.924Z,1.48
2023-01-13T08:33:13.177Z,1.75
2023-01-13T08:35:41.247Z,1.42
2023-01-13T08:38:09.236Z,1.60
2023-01-13T08:40:37.071Z,1.42
2023-01-13T08:43:05.167Z,1.70
2023-01-13T08:45:32.313Z,1.40
2023-01-13T08:47:59.796Z,1.63
2023-01-13T08:50:26.796Z,2.42
2023-01-13T08:52:54.304Z,1.70
2023-01-13T08:55:21.929Z,1.45
2023-01-13T08:57:49.015Z,1.58
2023-01-13T09:00:17.424Z,1.85
2023-01-13T09:02:44.790Z,2.20
2023-01-13T09:05:11.957Z,2.53
2023-01-13T09:07:39.603Z,1.92
2023-01-13T09:10:08.169Z,2.00
2023-01-13T09:12:53.816Z,1.88
2023-01-13T09:15:21.961Z,1.80
2023-01-13T09:17:49.096Z,1.65
2023-01-13T09:20:16.383Z,1.63
2023-01-13T09:22:44.055Z,1.60
2023-01-13T09:25:12.919Z,1.63
2023-01-13T09:27:40.208Z,2.50
2023-01-13T09:30:07.872Z,1.98
2023-01-13T09:32:35.167Z,1.60
2023-01-13T09:35:02.562Z,1.77
2023-01-13T09:37:31.758Z,1.48
2023-01-13T09:39:59.001Z,1.40
2023-01-13T09:42:52.083Z,1.52
2023-01-13T09:45:42.287Z,1.83
2023-01-13T09:48:25.822Z,1.67
2023-01-13T09:51:07.081Z,1.70
2023-01-13T09:53:56.055Z,1.60
2023-01-13T09:56:27.136Z,1.95
2023-01-13T09:58:54.167Z,1.70
2023-01-13T10:01:35.216Z,1.52
2023-01-13T10:04:11.577Z,1.80
2023-01-13T10:06:42.611Z,1.60
2023-01-13T10:09:17.530Z,1.77
2023-01-13T10:12:05.528Z,2.05
2023-01-13T10:14:41.774Z,1.60
2023-01-13T10:17:18.367Z,1.50
2023-01-13T10:19:53.236Z,1.90
2023-01-13T10:22:23.281Z,1.58
2023-01-13T10:25:10.099Z,2.00
2023-01-13T10:27:39.633Z,1.95
2023-01-13T10:30:22.647Z,2.40
2023-01-13T10:33:17.863Z,2.17
2023-01-13T10:35:55.872Z,4.07
2023-01-13T10:38:27.396Z,3.67
2023-01-13T10:41:03.868Z,3.22
2023-01-13T10:43:31.871Z,3.25
2023-01-13T10:46:06.189Z,3.83
2023-01-13T10:48:42.297Z,3.10
2023-01-13T10:51:21.197Z,3.00
2023-01-13T10:53:58.966Z,2.92
2023-01-13T10:56:29.687Z,3.05
2023-01-13T10:59:23.206Z,3.50
2023-01-13T11:01:58.831Z,2.90
2023-01-13T11:04:43.124Z,2.80
2023-01-13T11:07:40.974Z,2.58
2023-01-13T11:10:23.461Z,3.53
2023-01-13T11:13:15.972Z,2.22
2023-01-13T11:16:14.661Z,3.17
2023-01-13T11:19:12.358Z,3.13
2023-01-13T11:22:04.310Z,2.55
2023-01-13T11:24:40.479Z,3.00
2023-01-13T11:27:22.387Z,2.90
2023-01-13T11:29:52.187Z,2.95
2023-01-13T11:32:22.115Z,2.70
2023-01-13T11:34:54.914Z,2.50
2023-01-13T11:37:33.938Z,2.90
2023-01-13T11:40:11.890Z,3.92
2023-01-13T11:42:43.472Z,3.40
2023-01-13T11:45:29.622Z,3.20
2023-01-13T11:48:00.474Z,2.95
2023-01-13T11:50:51.003Z,3.10
2023-01-13T11:53:53.350Z,2.72
2023-01-13T11:56:41.860Z,2.67
2023-01-13T11:59:26.481Z,2.83
2023-01-13T12:02:12.481Z,2.80
2023-01-13T12:04:50.254Z,2.42
2023-01-13T12:07:55.219Z,2.65
2023-01-13T12:10:53.805Z,2.75
2023-01-13T12:13:20.858Z,2.33
2023-01-13T12:16:05.967Z,2.33
2023-01-13T12:19:28.276Z,2.45
2023-01-13T12:22:09.556Z,2.50
2023-01-13T12:24:55.686Z,2.70
2023-01-13T12:27:41.904Z,2.53
2023-01-13T12:30:43.045Z,2.65
2023-01-13T12:33:39.890Z,3.28
2023-01-13T12:36:15.848Z,2.72
2023-01-13T12:38:48.425Z,2.30
2023-01-13T12:41:39.127Z,2.80
2023-01-13T12:44:17.964Z,2.45
2023-01-13T12:46:53.394Z,2.20
2023-01-13T12:49:29.306Z,2.17
2023-01-13T12:51:56.387Z,2.58
2023-01-13T12:54:41.394Z,2.65
2023-01-13T12:57:35.426Z,2.70
2023-01-13T13:00:05.537Z,2.50
2023-01-13T13:02:34.211Z,2.38
2023-01-13T13:05:37.571Z,2.30
2023-01-13T13:08:23.123Z,2.22
2023-01-13T13:11:33.667Z,2.63
2023-01-13T13:14:02.465Z,2.75
2023-01-13T13:16:30.183Z,2.20
2023-01-13T13:19:19.027Z,2.72
2023-01-13T13:22:14.344Z,2.90
2023-01-13T13:24:43.431Z,2.58
2023-01-13T13:27:38.690Z,2.78
2023-01-13T13:30:18.647Z,2.58
2023-01-13T13:32:56.947Z,3.28
2023-01-13T13:35:29.960Z,2.80
2023-01-13T13:38:21.617Z,2.20
2023-01-13T13:41:07.144Z,2.25
2023-01-13T13:44:04.125Z,2.85
2023-01-13T13:46:47.104Z,2.50
2023-01-13T13:49:18.171Z,3.00
2023-01-13T13:52:15.129Z,2.70
2023-01-13T13:54:49.455Z,2.65
2023-01-13T13:57:45.072Z,2.45
2023-01-13T14:00:15.661Z,2.30
2023-01-13T14:02:52.638Z,2.70
2023-01-13T14:05:23.767Z,3.30
2023-01-13T14:08:17.381Z,3.10
2023-01-13T14:10:46.355Z,3.05
2023-01-13T14:13:15.203Z,2.72
2023-01-13T14:15:42.544Z,2.65
2023-01-13T14:18:14.485Z,2.85
2023-01-13T14:20:42.847Z,2.45
2023-01-13T14:23:18.173Z,2.33
2023-01-13T14:25:52.922Z,2.90
2023-01-13T14:28:32.659Z,2.80
2023-01-13T14:31:01.682Z,3.10
2023-01-13T14:33:42.066Z,2.67
2023-01-13T14:36:33.169Z,2.10
2023-01-13T14:39:03.281Z,3.20
2023-01-13T14:41:42.498Z,2.92
2023-01-13T14:44:27.449Z,2.67
2023-01-13T14:46:57.520Z,2.88
2023-01-13T14:49:41.711Z,2.78
2023-01-13T14:52:19.761Z,2.55
2023-01-13T14:54:58.883Z,2.88
2023-01-13T14:57:28.617Z,3.00
2023-01-13T14:59:57.645Z,2.63
2023-01-13T15:02:44.935Z,2.40
2023-01-13T15:05:19.104Z,2.35
2023-01-13T15:08:01.856Z,2.67
2023-01-13T15:10:30.751Z,2.50
2023-01-13T15:13:00.501Z,2.30
2023-01-13T15:15:35.126Z,2.05
2023-01-13T15:18:22.445Z,2.50
2023-01-13T15:20:51.832Z,2.67
2023-01-13T15:23:20.081Z,2.72
2023-01-13T15:25:48.084Z,2.20
2023-01-13T15:28:19.423Z,3.17
2023-01-13T15:30:47.310Z,2.85
2023-01-13T15:33:15.872Z,2.42
2023-01-13T15:35:46.137Z,3.33
2023-01-13T15:38:18.811Z,3.40
2023-01-13T15:40:47.468Z,2.47
2023-01-13T15:43:38.916Z,2.85
2023-01-13T15:46:38.328Z,2.88
2023-01-13T15:49:14.355Z,2.70
2023-01-13T15:51:41.708Z,2.80
2023-01-13T15:54:09.160Z,3.05
2023-01-13T15:56:38.311Z,3.10
2023-01-13T15:59:07.600Z,2.95
2023-01-13T16:01:34.709Z,2.38
2023-01-13T16:04:01.888Z,2.55
2023-01-13T16:06:33.690Z,2.20
2023-01-13T16:09:02.026Z,2.67
2023-01-13T16:11:30.564Z,2.40
2023-01-13T16:13:57.735Z,2.40
2023-01-13T16:16:27.862Z,2.60
2023-01-13T16:18:55.358Z,2.05
2023-01-13T16:21:25.469Z,2.40
2023-01-13T16:23:52.586Z,2.25
2023-01-13T16:26:25.860Z,2.92
2023-01-13T16:28:54.693Z,2.50
2023-01-13T16:31:33.299Z,2.58
2023-01-13T16:34:01.899Z,2.53
2023-01-13T16:36:31.200Z,1.95
2023-01-13T16:38:58.329Z,2.30
2023-01-13T16:41:25.716Z,2.25
2023-01-13T16:43:53.153Z,2.17
2023-01-13T16:46:29.231Z,2.17
2023-01-13T16:49:01.777Z,2.40
2023-01-13T16:51:28.923Z,2.35
2023-01-13T16:53:56.135Z,2.20
2023-01-13T16:56:28.794Z,2.17
2023-01-13T16:58:58.353Z,2.20
2023-01-13T17:01:28.561Z,2.63
2023-01-13T17:03:55.991Z,2.45
2023-01-13T17:06:37.915Z,3.92
2023-01-13T17:09:26.275Z,2.38
2023-01-13T17:11:53.931Z,2.10
2023-01-13T17:14:23.653Z,3.10
2023-01-13T17:16:52.907Z,2.22
2023-01-13T17:19:21.256Z,3.08
2023-01-13T17:21:48.339Z,2.72
2023-01-13T17:24:15.516Z,2.42
2023-01-13T17:26:49.581Z,2.15
2023-01-13T17:29:23.266Z,2.55
2023-01-13T17:31:51.561Z,2.70
2023-01-13T17:34:19.677Z,2.30
2023-01-13T17:36:46.695Z,2.50
2023-01-13T17:39:22.174Z,2.13
2023-01-13T17:41:49.940Z,3.25
2023-01-13T17:44:18.656Z,2.47
2023-01-13T17:46:46.551Z,2.47
2023-01-13T17:49:14.840Z,2.58
2023-01-13T17:51:42.291Z,2.42
2023-01-13T17:54:13.261Z,2.20
2023-01-13T17:56:41.310Z,2.28
2023-01-13T17:59:10.615Z,3.40
2023-01-13T18:01:38.275Z,2.40
2023-01-13T18:04:06.958Z,2.33
2023-01-13T18:06:34.258Z,2.25
2023-01-13T18:09:01.707Z,2.70
2023-01-13T18:11:28.927Z,2.58
2023-01-13T18:13:58.904Z,3.17
2023-01-13T18:16:29.732Z,3.05
2023-01-13T18:19:18.407Z,2.38
2023-01-13T18:22:05.055Z,3.05
2023-01-13T18:24:50.793Z,3.00
2023-01-13T18:27:22.873Z,2.40
2023-01-13T18:29:58.757Z,2.40
2023-01-13T18:32:32.868Z,2.38
2023-01-13T18:35:05.982Z,2.50
2023-01-13T18:37:36.245Z,2.50
2023-01-13T18:40:04.742Z,2.38
2023-01-13T18:42:50.125Z,2.45
2023-01-13T18:45:21.131Z,3.17
2023-01-13T18:47:48.186Z,1.90
2023-01-13T18:50:17.367Z,2.75
2023-01-13T18:52:44.673Z,3.50
2023-01-13T18:55:11.822Z,3.13
2023-01-13T18:57:41.538Z,2.85
2023-01-13T19:00:11.921Z,2.53
2023-01-13T19:02:39.398Z,2.60
2023-01-13T19:05:07.141Z,2.83
2023-01-13T19:07:35.930Z,2.60
2023-01-13T19:10:05.141Z,2.30
2023-01-13T19:12:33.918Z,2.10
2023-01-13T19:15:03.107Z,2.78
2023-01-13T19:17:35.084Z,2.25
2023-01-13T19:20:02.389Z,2.83
2023-01-13T19:22:32.995Z,2.40
2023-01-13T19:25:02.025Z,2.63
2023-01-13T19:27:30.017Z,2.10
2023-01-13T19:30:03.361Z,2.80
2023-01-13T19:32:33.341Z,2.22
2023-01-13T19:35:01.262Z,2.67
2023-01-13T19:37:30.671Z,2.25
2023-01-13T19:40:01.051Z,2.60
2023-01-13T19:42:46.466Z,2.50
2023-01-13T19:45:27.820Z,2.35
2023-01-13T19:47:56.272Z,2.85
2023-01-13T19:50:23.738Z,2.42
2023-01-13T19:52:50.763Z,2.33
2023-01-13T19:55:20.018Z,3.20
2023-01-13T19:57:47.124Z,2.40
2023-01-13T20:00:20.918Z,2.45
2023-01-13T20:02:49.791Z,3.08
2023-01-13T20:05:21.554Z,2.70
2023-01-13T20:07:50.067Z,2.83
2023-01-13T20:10:19.363Z,2.03
2023-01-13T20:12:46.476Z,2.00
2023-01-13T20:15:13.908Z,2.55
2023-01-13T20:17:41.786Z,2.22
2023-01-13T20:20:11.131Z,2.42
2023-01-13T20:22:39.831Z,2.63
2023-01-13T20:25:07.632Z,2.60
2023-01-13T20:27:34.892Z,2.40
2023-01-13T20:30:01.943Z,2.85
2023-01-13T20:32:29.228Z,2.67
2023-01-13T20:34:56.338Z,2.50
2023-01-13T20:37:23.407Z,3.03
2023-01-13T20:39:50.522Z,2.63
2023-01-13T20:42:29.773Z,4.45
2023-01-13T20:45:01.380Z,4.38
2023-01-13T20:47:29.878Z,3.05
2023-01-13T20:49:56.970Z,3.35
2023-01-13T20:52:24.184Z,2.88
2023-01-13T20:54:51.450Z,2.25
2023-01-13T20:57:18.486Z,2.47
2023-01-13T20:59:45.705Z,1.92
2023-01-13T21:02:14.973Z,2.40
2023-01-13T21:04:42.953Z,1.80
2023-01-13T21:07:10.497Z,2.50
2023-01-13T21:09:37.744Z,2.15
2023-01-13T21:12:23.441Z,1.85
2023-01-13T21:15:09.223Z,2.63
2023-01-13T21:17:54.923Z,2.22
2023-01-13T21:20:22.045Z,2.40
2023-01-13T21:22:49.857Z,2.33
2023-01-13T21:25:18.088Z,2.20
2023-01-13T21:27:45.323Z,1.83
2023-01-13T21:30:15.169Z,2.30
2023-01-13T21:32:43.362Z,3.28
2023-01-13T21:35:11.554Z,4.18
2023-01-13T21:37:40.056Z,3.78
2023-01-13T21:40:10.479Z,3.10
2023-01-13T21:42:55.885Z,2.20
2023-01-13T21:45:41.620Z,2.25
2023-01-13T21:48:08.803Z,2.53
2023-01-13T21:50:38.444Z,1.77
2023-01-13T21:53:07.630Z,2.20
2023-01-13T21:55:37.071Z,2.30
2023-01-13T21:58:11.689Z,1.70
2023-01-13T22:00:40.874Z,2.10
2023-01-13T22:03:09.617Z,2.08
2023-01-13T22:05:37.084Z,2.47
2023-01-13T22:08:04.700Z,3.45
2023-01-13T22:10:32.421Z,3.33
2023-01-13T22:13:21.557Z,3.00
2023-01-13T22:15:48.824Z,2.70
2023-01-13T22:18:18.489Z,2.40
2023-01-13T22:20:46.261Z,2.78
2023-01-13T22:23:13.784Z,3.30
2023-01-13T22:25:40.950Z,2.60
2023-01-13T22:28:09.557Z,2.85
2023-01-13T22:30:36.753Z,3.33
2023-01-13T22:33:03.972Z,3.10
2023-01-13T22:35:31.059Z,3.40
2023-01-13T22:37:59.015Z,3.05
2023-01-13T22:40:26.139Z,2.40
2023-01-13T22:42:53.173Z,2.40
2023-01-13T22:45:20.199Z,2.92
2023-01-13T22:47:48.006Z,2.28
2023-01-13T22:50:16.865Z,2.15
2023-01-13T22:52:44.251Z,2.60
2023-01-13T22:55:11.354Z,1.90
2023-01-13T22:57:47.359Z,1.92
2023-01-13T23:00:19.242Z,2.08
2023-01-13T23:02:46.657Z,1.90
2023-01-13T23:05:14.180Z,2.47
2023-01-13T23:07:41.604Z,2.30
2023-01-13T23:10:09.335Z,2.20
2023-01-13T23:12:36.361Z,2.42
2023-01-13T23:15:04.059Z,2.22
2023-01-13T23:17:31.081Z,2.25
2023-01-13T23:19:58.071Z,2.00
2023-01-13T23:22:25.598Z,2.58
2023-01-13T23:24:52.651Z,2.88
2023-01-13T23:27:19.685Z,1.92
2023-01-13T23:29:46.802Z,2.22
2023-01-13T23:32:13.813Z,2.30
2023-01-13T23:34:40.863Z,2.05
2023-01-13T23:37:07.995Z,2.42
2023-01-13T23:39:35.055Z,2.47
2023-01-13T23:42:02.123Z,2.28
2023-01-13T23:44:29.749Z,2.88
2023-01-13T23:46:57.020Z,2.90
2023-01-13T23:49:24.403Z,2.70
2023-01-13T23:51:52.245Z,3.03
2023-01-13T23:54:19.956Z,2.65
2023-01-13T23:56:50.064Z,2.72
2023-01-13T23:59:17.095Z,3.15
